Time;durP1;ratioP1;P1;durP2;ratioP2;P2;SDS_P1;SDS_P2;PMS_P1;PMS_P2;Temp;Humidity;BMP_temperature;BMP_pressure;BME280_temperature;BME280_humidity;BME280_pressure;Samples;Min_cycle;Max_cycle;Signal;HPM_P1;HPM_P2
2022/09/26 02:48:30;;;;;;;2.58;0.60;;;12.30;99.90;;;;;;5004335;23;92206;-82
2022/09/26 02:51:27;;;;;;;1.88;0.68;;;12.40;99.90;;;;;;4863342;28;90655;-83
2022/09/26 02:54:34;;;;;;;1.13;0.47;;;12.40;99.90;;;;;;4867455;28;92328;-83
2022/09/26 02:57:03;;;;;;;1.67;0.70;;;12.40;99.90;;;;;;4850960;28;93042;-83
2022/09/26 02:59:44;;;;;;;1.45;0.50;;;12.40;99.90;;;;;;4861247;28;92683;-83
2022/09/26 03:02:26;;;;;;;1.50;0.40;;;12.40;99.90;;;;;;4866093;28;92604;-80
2022/09/26 03:05:02;;;;;;;1.77;0.82;;;12.40;99.90;;;;;;4864859;28;92384;-79
2022/09/26 03:07:41;;;;;;;2.22;1.48;;;12.40;99.90;;;;;;4871713;28;92564;-79
2022/09/26 03:10:09;;;;;;;3.83;1.02;;;12.30;99.90;;;;;;4868997;28;92271;-78
2022/09/26 03:12:36;;;;;;;3.53;0.98;;;12.30;99.90;;;;;;4879091;28;92072;-78
2022/09/26 03:15:05;;;;;;;2.13;1.17;;;12.30;99.90;;;;;;4873552;28;92307;-80
2022/09/26 03:17:33;;;;;;;3.58;1.20;;;12.30;99.90;;;;;;4871194;28;91277;-81
2022/09/26 03:20:14;;;;;;;2.28;1.20;;;12.30;99.90;;;;;;4877851;28;92270;-80
2022/09/26 03:22:41;;;;;;;4.57;1.38;;;12.40;99.90;;;;;;4874616;28;92159;-81
2022/09/26 03:25:09;;;;;;;2.78;1.30;;;12.40;99.90;;;;;;4872630;28;93401;-80
2022/09/26 03:27:37;;;;;;;2.53;1.17;;;12.40;99.90;;;;;;4875741;28;92201;-81
2022/09/26 03:30:04;;;;;;;3.30;1.20;;;12.40;99.90;;;;;;4872205;28;91762;-82
2022/09/26 03:32:31;;;;;;;3.30;0.98;;;12.40;99.90;;;;;;4864833;28;91783;-82
2022/09/26 03:34:56;;;;;;;4.40;1.50;;;12.40;99.90;;;;;;4869677;28;91877;-79
2022/09/26 03:37:22;;;;;;;2.92;1.08;;;12.50;99.90;;;;;;4865444;28;92130;-80
2022/09/26 03:39:48;;;;;;;3.13;1.60;;;12.50;99.90;;;;;;4875952;28;91794;-79
2022/09/26 03:42:15;;;;;;;2.97;1.30;;;12.50;99.90;;;;;;4878427;28;90997;-80
2022/09/26 03:44:42;;;;;;;4.85;1.27;;;12.50;99.90;;;;;;4873071;28;91915;-79
2022/09/26 03:47:09;;;;;;;3.50;1.30;;;12.60;99.90;;;;;;4862362;28;91877;-78
2022/09/26 03:49:35;;;;;;;2.45;1.30;;;12.40;99.90;;;;;;4872760;28;92460;-79
2022/09/26 03:52:01;;;;;;;3.25;1.20;;;12.30;99.90;;;;;;4882034;28;91607;-80
2022/09/26 03:54:27;;;;;;;3.05;1.52;;;12.40;99.90;;;;;;4876769;28;91779;-78
2022/09/26 03:56:54;;;;;;;2.28;1.10;;;12.30;99.90;;;;;;4881037;28;91952;-80
2022/09/26 03:59:19;;;;;;;3.13;1.10;;;12.30;99.90;;;;;;4878293;28;91385;-82
2022/09/26 04:01:45;;;;;;;3.08;1.20;;;12.40;99.90;;;;;;4873835;28;91925;-81
2022/09/26 04:04:14;;;;;;;4.93;1.45;;;12.40;99.90;;;;;;4884829;28;91827;-82
2022/09/26 04:06:39;;;;;;;2.13;1.10;;;12.50;99.90;;;;;;4874611;28;91165;-84
2022/09/26 04:09:05;;;;;;;4.15;1.50;;;12.50;99.90;;;;;;4863362;28;92164;-82
2022/09/26 04:11:31;;;;;;;2.58;1.27;;;12.50;99.90;;;;;;4872916;28;92437;-82
2022/09/26 04:13:57;;;;;;;3.17;1.63;;;12.50;99.90;;;;;;4882309;28;94792;-82
2022/09/26 04:16:23;;;;;;;2.42;1.27;;;12.50;99.90;;;;;;4872975;28;92275;-82
2022/09/26 04:18:55;;;;;;;2.72;0.93;;;12.40;99.90;;;;;;4871342;28;92144;-83
2022/09/26 04:21:21;;;;;;;4.95;1.20;;;12.40;99.90;;;;;;4874784;28;91651;-82
2022/09/26 04:23:46;;;;;;;3.65;1.30;;;12.50;99.90;;;;;;4872435;28;91729;-82
2022/09/26 04:26:17;;;;;;;3.83;0.90;;;12.40;99.90;;;;;;4877616;28;92492;-83
2022/09/26 04:28:44;;;;;;;2.38;0.90;;;12.50;99.90;;;;;;4867980;28;92004;-84
2022/09/26 04:31:11;;;;;;;2.40;0.90;;;12.40;99.90;;;;;;4878800;28;90631;-82
2022/09/26 04:33:38;;;;;;;3.85;0.85;;;12.40;99.90;;;;;;4877059;28;92249;-83
2022/09/26 04:36:07;;;;;;;2.20;0.90;;;12.40;99.90;;;;;;4873232;28;91867;-83
2022/09/26 04:38:33;;;;;;;1.90;0.75;;;12.40;99.90;;;;;;4874667;28;93188;-83
2022/09/26 04:41:09;;;;;;;2.45;0.70;;;12.40;99.90;;;;;;4881699;28;92111;-84
2022/09/26 04:43:36;;;;;;;1.50;0.50;;;12.40;99.90;;;;;;4881792;28;92279;-83
2022/09/26 04:46:16;;;;;;;1.83;0.77;;;12.30;99.90;;;;;;4878555;28;91993;-84
2022/09/26 04:48:42;;;;;;;1.80;0.70;;;12.40;99.90;;;;;;4870881;28;92431;-84
2022/09/26 04:51:12;;;;;;;3.38;1.70;;;12.20;99.90;;;;;;4886425;28;91759;-84
2022/09/26 04:53:39;;;;;;;2.72;0.90;;;12.20;99.90;;;;;;4878527;28;92328;-84
2022/09/26 04:56:07;;;;;;;3.05;1.20;;;12.20;99.90;;;;;;4868508;28;92008;-84
2022/09/26 04:58:33;;;;;;;2.72;0.98;;;12.30;99.90;;;;;;4872270;28;91684;-83
2022/09/26 05:01:04;;;;;;;2.35;0.70;;;12.30;99.90;;;;;;4881694;28;92143;-84
2022/09/26 05:03:30;;;;;;;1.52;0.40;;;12.40;99.90;;;;;;4872596;28;92908;-83
2022/09/26 05:05:57;;;;;;;2.05;0.70;;;12.20;99.90;;;;;;4874722;28;94518;-81
2022/09/26 05:08:24;;;;;;;1.58;0.57;;;12.10;99.90;;;;;;4875194;28;92077;-82
2022/09/26 05:10:55;;;;;;;1.30;0.40;;;12.10;99.90;;;;;;4877502;28;91905;-82
2022/09/26 05:13:22;;;;;;;2.03;0.77;;;12.10;99.90;;;;;;4875332;28;91643;-82
2022/09/26 05:15:49;;;;;;;1.55;0.60;;;12.10;99.90;;;;;;4875851;28;92111;-82
2022/09/26 05:18:15;;;;;;;2.45;0.60;;;12.10;99.90;;;;;;4875379;28;91506;-82
2022/09/26 05:20:49;;;;;;;2.22;0.93;;;12.10;99.90;;;;;;4878653;28;90984;-82
2022/09/26 05:26:18;;;;;;;4.45;0.47;;;12.00;99.90;;;;;;4877813;28;92781;-82
2022/09/26 05:26:19;;;;;;;2.00;0.77;;;12.00;99.90;;;;;;4877232;28;92790;-82
2022/09/26 05:28:50;;;;;;;1.52;0.60;;;12.10;99.90;;;;;;4875310;28;92455;-82
2022/09/26 05:31:17;;;;;;;2.03;0.70;;;12.00;99.90;;;;;;4875085;28;93345;-82
2022/09/26 05:33:43;;;;;;;2.70;1.00;;;12.00;99.90;;;;;;4876884;28;92335;-82
2022/09/26 05:36:09;;;;;;;3.75;0.80;;;12.00;99.90;;;;;;4881255;28;91902;-81
2022/09/26 05:38:35;;;;;;;1.33;0.60;;;11.90;99.90;;;;;;4880362;28;92682;-80
2022/09/26 05:41:00;;;;;;;3.70;0.80;;;12.00;99.90;;;;;;4874423;28;91524;-80
2022/09/26 05:43:34;;;;;;;3.63;0.77;;;12.00;99.90;;;;;;4869412;28;91703;-81
2022/09/26 05:46:03;;;;;;;1.42;0.57;;;12.10;99.90;;;;;;4874631;28;92173;-81
2022/09/26 05:48:31;;;;;;;1.88;0.50;;;12.10;99.90;;;;;;4871082;28;92082;-81
2022/09/26 05:51:04;;;;;;;1.58;0.45;;;12.10;99.90;;;;;;4875477;28;91989;-81
2022/09/26 05:53:31;;;;;;;1.42;0.40;;;12.00;99.90;;;;;;4882955;28;93219;-81
2022/09/26 05:55:56;;;;;;;1.52;0.60;;;12.00;99.90;;;;;;4876614;28;93150;-81
2022/09/26 05:58:22;;;;;;;4.57;0.50;;;12.00;99.90;;;;;;4865988;28;91774;-82
2022/09/26 06:00:48;;;;;;;1.83;0.47;;;12.10;99.90;;;;;;4879227;28;91286;-81
2022/09/26 06:03:14;;;;;;;2.75;0.80;;;12.10;99.90;;;;;;4877138;28;91821;-81
2022/09/26 06:05:41;;;;;;;1.33;0.52;;;12.30;99.90;;;;;;4868187;28;91647;-81
2022/09/26 06:08:08;;;;;;;1.48;0.50;;;12.50;99.90;;;;;;4876474;28;91543;-82
2022/09/26 06:10:35;;;;;;;1.48;0.38;;;12.60;99.90;;;;;;4886294;28;91136;-81
2022/09/26 06:13:01;;;;;;;1.92;0.57;;;12.70;99.90;;;;;;4888176;28;91632;-79
2022/09/26 06:15:31;;;;;;;2.85;0.93;;;12.70;99.90;;;;;;4874064;28;91932;-78
2022/09/26 06:18:03;;;;;;;1.40;0.55;;;12.60;99.90;;;;;;4882636;28;92299;-78
2022/09/26 06:20:31;;;;;;;1.50;0.57;;;12.60;99.90;;;;;;4882170;28;91144;-80
2022/09/26 06:22:57;;;;;;;2.10;0.68;;;12.70;99.90;;;;;;4877120;28;91951;-81
2022/09/26 06:25:22;;;;;;;2.38;0.60;;;12.60;99.90;;;;;;4887770;28;92055;-82
2022/09/26 06:27:49;;;;;;;1.60;0.70;;;12.40;99.90;;;;;;4885885;28;91562;-81
2022/09/26 06:30:15;;;;;;;5.75;2.67;;;12.20;99.90;;;;;;4879616;28;91421;-82
2022/09/26 06:32:40;;;;;;;4.22;2.03;;;12.30;99.90;;;;;;4877759;28;92356;-82
2022/09/26 06:35:07;;;;;;;6.70;0.80;;;12.20;99.90;;;;;;4878820;28;91936;-82
2022/09/26 06:37:32;;;;;;;3.20;0.63;;;12.20;99.90;;;;;;4893879;28;92156;-81
2022/09/26 06:39:59;;;;;;;4.75;0.80;;;12.20;99.90;;;;;;4879636;28;91341;-79
2022/09/26 06:42:25;;;;;;;1.98;0.88;;;12.30;99.90;;;;;;4877009;28;93219;-84
2022/09/26 06:44:51;;;;;;;2.15;0.77;;;12.40;99.90;;;;;;4878817;28;92319;-80
2022/09/26 06:47:16;;;;;;;3.53;0.57;;;12.40;99.90;;;;;;4884754;28;91371;-82
2022/09/26 06:49:47;;;;;;;1.48;0.70;;;12.40;99.90;;;;;;4876997;28;91613;-79
2022/09/26 06:52:13;;;;;;;1.42;0.43;;;12.40;99.90;;;;;;4886091;28;92156;-81
2022/09/26 06:54:39;;;;;;;2.63;0.60;;;12.50;99.90;;;;;;4888228;28;91470;-80
2022/09/26 06:57:05;;;;;;;1.13;0.40;;;12.50;99.90;;;;;;4878804;28;91291;-80
2022/09/26 06:59:30;;;;;;;3.35;0.95;;;12.70;99.90;;;;;;4874513;28;91091;-81
2022/09/26 07:01:56;;;;;;;3.42;0.70;;;12.60;99.90;;;;;;4875584;28;92292;-83
2022/09/26 07:04:26;;;;;;;3.00;0.60;;;12.50;99.90;;;;;;4876562;28;92014;-81
2022/09/26 07:06:52;;;;;;;;;;;12.50;99.90;;;;;;4877583;28;92568;-82
2022/09/26 07:09:18;;;;;;;2.15;0.52;;;12.60;99.90;;;;;;4867894;28;91360;-83
2022/09/26 07:11:46;;;;;;;3.90;0.60;;;12.70;99.90;;;;;;4876764;28;93472;-82
2022/09/26 07:14:16;;;;;;;2.88;0.85;;;12.80;99.90;;;;;;4877219;28;91368;-80
2022/09/26 07:16:43;;;;;;;2.58;1.00;;;12.70;99.90;;;;;;4877348;28;91572;-81
2022/09/26 07:19:10;;;;;;;4.47;1.65;;;12.80;99.90;;;;;;4878028;28;91223;-79
2022/09/26 07:21:36;;;;;;;4.03;1.40;;;12.50;99.90;;;;;;4875607;28;92013;-81
2022/09/26 07:24:02;;;;;;;4.80;1.27;;;12.40;99.90;;;;;;4878371;28;91855;-85
2022/09/26 07:26:28;;;;;;;4.25;1.70;;;12.40;99.90;;;;;;4877437;28;91254;-80
2022/09/26 07:28:53;;;;;;;2.72;1.13;;;12.50;99.90;;;;;;4877837;28;91988;-82
2022/09/26 07:31:19;;;;;;;4.38;1.42;;;12.60;99.90;;;;;;4877420;28;92899;-82
2022/09/26 07:33:45;;;;;;;3.08;1.25;;;12.60;99.90;;;;;;4876074;28;92850;-81
2022/09/26 07:36:11;;;;;;;3.35;1.20;;;12.50;99.90;;;;;;4876700;28;91280;-81
2022/09/26 07:38:36;;;;;;;2.70;1.20;;;12.70;99.90;;;;;;4871764;28;91600;-81
2022/09/26 07:41:02;;;;;;;6.68;1.52;;;12.90;99.90;;;;;;4876163;28;92265;-83
2022/09/26 07:43:28;;;;;;;74.93;4.80;;;13.00;99.90;;;;;;4876690;28;93466;-79
2022/09/26 07:51:22;;;;;;;23.73;2.38;;;13.10;99.90;;;;;;4872749;28;91586;-83
2022/09/26 07:53:47;;;;;;;3.33;0.98;;;13.40;99.90;;;;;;4876171;28;91393;-82
2022/09/26 07:56:15;;;;;;;2.90;1.25;;;13.20;99.90;;;;;;4871159;28;93281;-82
2022/09/26 07:58:42;;;;;;;65.05;4.65;;;13.20;99.90;;;;;;4876301;28;91482;-80
2022/09/26 08:01:11;;;;;;;27.42;3.13;;;13.10;99.90;;;;;;4875507;28;92653;-81
2022/09/26 08:03:38;;;;;;;127.68;10.25;;;13.00;99.90;;;;;;4875764;28;91444;-80
2022/09/26 08:06:04;;;;;;;22.45;3.05;;;12.70;99.90;;;;;;4875646;28;91943;-81
2022/09/26 08:08:30;;;;;;;6.72;1.52;;;12.80;99.90;;;;;;4885546;28;91901;-82
2022/09/26 08:10:57;;;;;;;3.75;1.40;;;12.50;99.90;;;;;;4876108;28;92348;-81
2022/09/26 08:13:27;;;;;;;9.00;1.70;;;12.60;99.90;;;;;;4876750;28;92131;-83
2022/09/26 08:15:53;;;;;;;4.22;1.23;;;12.80;99.90;;;;;;4869723;28;91325;-82
2022/09/26 08:18:19;;;;;;;26.45;2.17;;;12.80;99.90;;;;;;4884911;28;91888;-79
2022/09/26 08:20:46;;;;;;;6.57;1.40;;;12.70;99.90;;;;;;4878888;28;93204;-82
2022/09/26 08:23:13;;;;;;;3.15;1.38;;;12.90;99.90;;;;;;4881402;28;92745;-84
2022/09/26 08:25:39;;;;;;;3.90;1.30;;;13.10;99.90;;;;;;4881993;28;91269;-80
2022/09/26 08:28:06;;;;;;;5.35;1.42;;;13.20;99.90;;;;;;4879483;28;91499;-82
2022/09/26 08:30:32;;;;;;;4.57;1.10;;;13.30;99.90;;;;;;4874175;28;91705;-82
2022/09/26 08:32:59;;;;;;;2.13;1.10;;;13.30;99.90;;;;;;4880675;28;92318;-84
2022/09/26 08:35:25;;;;;;;4.30;1.20;;;13.50;99.90;;;;;;4879771;28;91278;-81
2022/09/26 08:37:51;;;;;;;4.93;0.90;;;13.70;99.90;;;;;;4881330;28;90641;-80
2022/09/26 08:40:17;;;;;;;2.42;1.00;;;14.00;99.90;;;;;;4880988;28;92282;-82
2022/09/26 08:42:55;;;;;;;2.08;0.85;;;14.20;99.90;;;;;;4878725;28;91412;-81
2022/09/26 08:46:37;;;;;;;5.53;1.00;;;14.30;99.90;;;;;;4878453;28;92282;-82
2022/09/26 08:48:55;;;;;;;2.97;0.90;;;14.50;99.90;;;;;;4871307;28;92086;-83
2022/09/26 08:51:37;;;;;;;5.32;0.95;;;14.50;99.90;;;;;;4880581;28;91477;-79
2022/09/26 08:54:14;;;;;;;3.95;0.90;;;14.60;99.90;;;;;;4878691;28;91704;-81
2022/09/26 08:56:47;;;;;;;6.25;1.08;;;14.70;99.90;;;;;;4878414;28;91900;-82
2022/09/26 08:59:23;;;;;;;1.42;0.60;;;14.50;99.90;;;;;;4879341;28;91308;-83
2022/09/26 09:01:53;;;;;;;1.60;0.60;;;14.50;99.90;;;;;;4878462;28;92163;-80
2022/09/26 09:04:39;;;;;;;;;;;14.60;99.90;;;;;;4875188;28;91915;-79
2022/09/26 09:07:17;;;;;;;2.00;0.40;;;14.50;99.90;;;;;;4879436;28;91359;-79
2022/09/26 09:09:42;;;;;;;2.30;0.30;;;14.50;99.90;;;;;;4878461;28;91318;-79
2022/09/26 09:12:12;;;;;;;1.85;0.30;;;14.50;99.90;;;;;;4883619;28;93174;-79
2022/09/26 09:14:51;;;;;;;;;;;14.50;98.60;;;;;;4891306;28;92625;-80
2022/09/26 09:17:25;;;;;;;0.93;0.25;;;14.40;99.90;;;;;;4868509;28;91917;-79
2022/09/26 09:20:15;;;;;;;1.27;0.30;;;14.30;98.70;;;;;;4878418;28;91347;-79
2022/09/26 09:22:56;;;;;;;1.58;0.30;;;14.30;98.80;;;;;;4882617;28;91921;-80
2022/09/26 09:25:38;;;;;;;2.83;0.40;;;14.40;99.10;;;;;;4868518;28;91813;-79
2022/09/26 09:28:26;;;;;;;1.73;0.30;;;14.40;97.40;;;;;;4885709;28;91653;-79
2022/09/26 09:31:05;;;;;;;2.78;0.50;;;14.40;98.00;;;;;;4883947;28;90425;-80
2022/09/26 09:33:58;;;;;;;1.52;0.35;;;14.60;96.50;;;;;;4880384;28;92330;-80
2022/09/26 09:36:53;;;;;;;3.10;0.47;;;14.70;96.10;;;;;;4876292;28;92917;-79
2022/09/26 09:39:34;;;;;;;1.85;0.35;;;14.60;96.00;;;;;;4884438;28;92696;-79
2022/09/26 09:42:11;;;;;;;2.75;0.35;;;14.60;97.30;;;;;;4883629;28;91914;-79
2022/09/26 09:44:46;;;;;;;1.52;0.40;;;14.60;97.20;;;;;;4877302;28;92438;-80
2022/09/26 09:47:14;;;;;;;2.03;0.57;;;14.40;97.10;;;;;;4884359;28;91656;-80
2022/09/26 09:49:42;;;;;;;2.70;0.60;;;14.50;96.70;;;;;;4892203;28;91454;-81
2022/09/26 09:52:11;;;;;;;1.83;0.35;;;14.40;96.50;;;;;;4887477;28;91593;-80
2022/09/26 09:55:10;;;;;;;5.68;0.60;;;14.40;96.10;;;;;;4881715;28;91928;-79
2022/09/26 09:57:59;;;;;;;3.60;0.52;;;14.30;95.60;;;;;;4884273;28;91967;-79
2022/09/26 10:00:26;;;;;;;1.08;0.28;;;14.20;95.70;;;;;;4883425;28;91658;-79
2022/09/26 10:03:04;;;;;;;1.65;0.30;;;14.30;95.70;;;;;;4893537;28;91323;-79
2022/09/26 10:05:43;;;;;;;1.50;0.43;;;14.30;95.80;;;;;;4883863;28;93374;-79
2022/09/26 10:08:24;;;;;;;1.25;0.20;;;14.40;95.60;;;;;;4882656;28;92106;-79
2022/09/26 10:11:09;;;;;;;1.63;0.40;;;14.50;93.40;;;;;;4876767;28;91898;-79
2022/09/26 10:13:38;;;;;;;2.35;0.63;;;13.90;95.80;;;;;;4881426;28;91411;-79
2022/09/26 10:16:06;;;;;;;1.20;0.40;;;14.20;96.60;;;;;;4883307;28;91769;-79
2022/09/26 10:18:32;;;;;;;1.10;0.30;;;14.40;95.70;;;;;;4884422;28;91369;-80
2022/09/26 10:21:07;;;;;;;1.17;0.40;;;14.60;95.10;;;;;;4865158;29;91308;-83
2022/09/26 10:23:41;;;;;;;1.17;0.43;;;14.60;94.80;;;;;;4864899;29;90574;-80
2022/09/26 10:26:09;;;;;;;1.10;0.38;;;14.80;95.40;;;;;;4872382;28;91799;-79
2022/09/26 10:28:47;;;;;;;1.40;0.30;;;14.90;93.90;;;;;;4872365;28;91585;-79
2022/09/26 10:31:28;;;;;;;3.28;0.60;;;15.20;93.50;;;;;;4877552;28;92842;-80
2022/09/26 10:33:59;;;;;;;3.80;0.70;;;15.50;93.50;;;;;;4875068;28;91882;-80
2022/09/26 10:36:35;;;;;;;1.30;0.40;;;16.00;92.30;;;;;;4878197;28;91697;-79
2022/09/26 10:42:00;;;;;;;2.10;0.57;;;16.70;89.30;;;;;;4872909;28;91347;-80
2022/09/26 10:44:30;;;;;;;1.80;0.80;;;17.30;90.60;;;;;;4882756;28;91467;-79
2022/09/26 10:46:59;;;;;;;1.40;0.73;;;18.10;88.20;;;;;;4876668;28;91598;-80
2022/09/26 10:50:10;;;;;;;1.63;0.50;;;18.80;83.20;;;;;;4888327;28;91956;-80
2022/09/26 10:52:48;;;;;;;2.53;0.68;;;18.90;79.10;;;;;;4812751;29;91388;-82
2022/09/26 10:55:16;;;;;;;2.03;0.60;;;19.00;76.80;;;;;;4874736;28;91962;-79
2022/09/26 10:57:49;;;;;;;1.75;0.38;;;18.80;76.80;;;;;;4869938;28;93025;-80
2022/09/26 11:00:19;;;;;;;2.28;0.50;;;18.80;75.60;;;;;;4880473;28;93219;-79
2022/09/26 11:02:50;;;;;;;1.73;0.65;;;18.40;74.10;;;;;;4881118;28;91716;-80
2022/09/26 11:08:09;;;;;;;3.65;1.10;;;18.10;77.20;;;;;;4864565;28;91411;-78
2022/09/26 11:10:40;;;;;;;2.05;0.80;;;17.70;79.00;;;;;;4875366;28;93625;-77
2022/09/26 11:13:17;;;;;;;6.70;1.42;;;17.80;78.20;;;;;;4875911;28;91917;-77
2022/09/26 11:16:03;;;;;;;4.93;1.70;;;17.80;75.80;;;;;;4883218;28;90657;-81
2022/09/26 11:18:38;;;;;;;1.98;0.50;;;18.00;77.60;;;;;;4868364;28;92315;-79
2022/09/26 11:21:14;;;;;;;1.40;0.40;;;17.60;77.90;;;;;;4882043;28;92526;-78
2022/09/26 11:23:49;;;;;;;;;;;17.60;73.50;;;;;;4881123;28;92998;-82
2022/09/26 11:26:32;;;;;;;1.27;0.52;;;17.60;76.90;;;;;;4880502;28;91390;-82
2022/09/26 11:29:36;;;;;;;3.45;0.65;;;17.40;75.20;;;;;;4883947;28;92322;-79
2022/09/26 11:32:03;;;;;;;1.73;0.47;;;17.30;74.80;;;;;;4875511;28;91408;-80
2022/09/26 11:34:32;;;;;;;1.50;0.70;;;17.10;73.00;;;;;;4871530;28;91345;-80
2022/09/26 11:37:29;;;;;;;2.83;0.90;;;17.00;78.70;;;;;;4878619;28;91745;-83
2022/09/26 11:40:21;;;;;;;2.53;0.75;;;17.60;77.70;;;;;;4882228;28;91737;-80
2022/09/26 11:43:12;;;;;;;1.35;0.52;;;18.00;73.40;;;;;;4882479;28;91210;-80
2022/09/26 11:45:56;;;;;;;1.17;0.43;;;17.20;72.20;;;;;;4864500;29;91970;-79
2022/09/26 11:48:34;;;;;;;1.85;0.30;;;17.10;74.90;;;;;;4866428;29;91911;-84
2022/09/26 11:51:12;;;;;;;1.80;0.68;;;17.30;76.00;;;;;;4876109;28;93129;-80
2022/09/26 11:53:39;;;;;;;1.25;0.47;;;17.50;74.80;;;;;;4884928;28;92936;-81
2022/09/26 11:56:05;;;;;;;3.55;0.75;;;17.60;74.60;;;;;;4902711;28;91186;-80
2022/09/26 11:58:58;;;;;;;2.97;0.50;;;17.80;75.80;;;;;;4905196;28;91201;-80
2022/09/26 12:01:44;;;;;;;1.98;0.70;;;17.20;72.60;;;;;;4874484;28;93395;-80
2022/09/26 12:04:24;;;;;;;1.70;0.40;;;17.00;75.40;;;;;;4882836;28;91896;-79
2022/09/26 12:07:16;;;;;;;1.73;0.57;;;17.60;75.70;;;;;;4874649;28;91288;-79
2022/09/26 12:09:54;;;;;;;1.60;0.60;;;17.70;72.20;;;;;;4883948;28;90483;-80
2022/09/26 12:12:39;;;;;;;2.45;0.50;;;17.90;71.30;;;;;;4902047;28;92181;-81
2022/09/26 12:15:13;;;;;;;3.53;0.60;;;17.60;72.90;;;;;;4880495;28;92107;-80
2022/09/26 12:17:52;;;;;;;1.67;0.55;;;16.70;72.80;;;;;;4866690;29;92906;-79
2022/09/26 12:20:37;;;;;;;1.38;0.50;;;16.20;75.90;;;;;;4867105;29;91928;-80
2022/09/26 12:23:22;;;;;;;1.83;0.50;;;16.30;75.80;;;;;;4873157;28;92305;-79
2022/09/26 12:26:15;;;;;;;2.30;0.68;;;16.00;77.30;;;;;;4893035;28;91280;-79
2022/09/26 12:28:46;;;;;;;2.40;0.82;;;15.70;77.60;;;;;;4885209;28;92015;-79
2022/09/26 12:31:40;;;;;;;1.33;0.70;;;15.90;77.90;;;;;;4885551;28;91893;-81
2022/09/26 12:34:17;;;;;;;7.05;0.80;;;16.10;77.80;;;;;;4885468;28;92467;-79
2022/09/26 12:37:00;;;;;;;2.50;0.60;;;16.20;76.70;;;;;;4883742;28;92002;-79
2022/09/26 12:39:32;;;;;;;1.77;0.60;;;15.90;76.70;;;;;;4882375;28;91905;-79
2022/09/26 12:42:15;;;;;;;2.03;0.80;;;16.00;77.20;;;;;;4876430;28;91803;-81
2022/09/26 12:45:08;;;;;;;1.70;0.63;;;16.20;77.80;;;;;;4884857;28;92500;-79
2022/09/26 12:47:55;;;;;;;2.92;0.85;;;16.00;76.10;;;;;;4871000;28;92105;-79
2022/09/26 12:50:29;;;;;;;1.85;0.60;;;16.00;78.10;;;;;;4874080;28;91906;-79
2022/09/26 12:53:18;;;;;;;2.70;0.60;;;16.60;78.20;;;;;;4904330;28;91331;-80
2022/09/26 12:56:08;;;;;;;2.83;0.60;;;17.20;73.00;;;;;;4892303;28;92341;-81
2022/09/26 12:58:56;;;;;;;3.58;0.85;;;16.90;74.10;;;;;;4884341;28;93284;-79
2022/09/26 13:01:26;;;;;;;1.48;0.57;;;16.60;74.00;;;;;;4879638;28;91255;-79
2022/09/26 13:04:12;;;;;;;;;;;16.30;75.10;;;;;;4881358;28;90780;-79
2022/09/26 13:06:58;;;;;;;1.20;0.40;;;16.30;74.20;;;;;;4892407;28;93391;-80
2022/09/26 13:09:55;;;;;;;1.00;0.40;;;16.70;71.30;;;;;;4881802;28;91321;-79
2022/09/26 13:12:44;;;;;;;1.40;0.50;;;16.80;70.10;;;;;;4875420;28;92208;-80
2022/09/26 13:15:30;;;;;;;1.80;0.40;;;16.90;71.50;;;;;;4888612;28;91894;-80
2022/09/26 13:18:03;;;;;;;4.85;0.70;;;17.00;72.60;;;;;;4877554;28;92402;-80
2022/09/26 13:20:42;;;;;;;2.28;0.50;;;17.20;70.70;;;;;;4891288;28;92198;-80
2022/09/26 13:23:14;;;;;;;1.58;0.40;;;17.40;69.80;;;;;;4900599;28;91403;-80
2022/09/26 13:25:50;;;;;;;2.05;0.50;;;17.50;73.40;;;;;;4878611;28;91779;-80
2022/09/26 13:28:15;;;;;;;;;;;17.80;65.20;;;;;;4882099;28;92255;-79
2022/09/26 13:30:52;;;;;;;1.30;0.45;;;17.90;63.30;;;;;;4886140;28;90993;-80
2022/09/26 13:33:34;;;;;;;1.23;0.47;;;17.40;65.30;;;;;;4885216;28;91876;-80
2022/09/26 13:36:01;;;;;;;;;;;17.80;68.70;;;;;;4871093;28;91691;-80
2022/09/26 13:39:02;;;;;;;2.22;0.75;;;18.00;65.60;;;;;;4874077;28;92700;-80
2022/09/26 13:41:48;;;;;;;1.25;0.57;;;18.30;64.80;;;;;;4871824;28;92116;-80
2022/09/26 13:44:43;;;;;;;2.55;0.38;;;18.30;63.70;;;;;;4882784;28;92076;-80
2022/09/26 13:47:33;;;;;;;1.20;0.52;;;18.00;63.80;;;;;;4883851;28;91621;-80
2022/09/26 13:50:02;;;;;;;5.72;0.70;;;17.50;62.50;;;;;;4883448;28;92375;-80
2022/09/26 13:53:06;;;;;;;2.13;0.73;;;17.70;63.20;;;;;;4882314;28;91800;-80
2022/09/26 13:55:33;;;;;;;1.70;0.50;;;17.50;66.80;;;;;;4882777;28;91663;-80
2022/09/26 13:58:02;;;;;;;1.55;0.50;;;17.50;65.60;;;;;;4884617;28;90733;-80
2022/09/26 14:00:29;;;;;;;;;;;17.40;63.40;;;;;;4884556;28;92173;-80
2022/09/26 14:03:12;;;;;;;1.73;0.43;;;17.40;65.90;;;;;;4885211;28;92877;-80
2022/09/26 14:05:40;;;;;;;1.15;0.43;;;17.00;64.10;;;;;;4883493;28;92839;-79
2022/09/26 14:12:10;;;;;;;22.95;10.45;;;16.70;66.10;;;;;;4840785;29;91542;-80
2022/09/26 14:14:44;;;;;;;;;;;16.90;66.40;;;;;;4872523;28;92096;-82
2022/09/26 14:17:51;;;;;;;8.80;1.00;;;17.10;66.00;;;;;;4885660;28;91770;-80
2022/09/26 14:20:30;;;;;;;3.90;0.52;;;17.20;64.20;;;;;;4893508;28;91218;-80
2022/09/26 14:22:57;;;;;;;3.92;0.75;;;17.40;63.90;;;;;;4897492;28;91830;-80
2022/09/26 14:25:48;;;;;;;3.83;0.50;;;17.40;64.60;;;;;;4888948;28;92803;-83
2022/09/26 14:28:33;;;;;;;82.35;5.30;;;17.60;68.40;;;;;;4858117;29;92440;-79
2022/09/26 14:31:16;;;;;;;3.10;0.30;;;17.40;64.40;;;;;;4867347;28;91302;-80
2022/09/26 14:33:43;;;;;;;0.98;0.32;;;17.50;65.90;;;;;;4891531;28;93398;-80
2022/09/26 14:36:17;;;;;;;0.88;0.20;;;17.70;62.00;;;;;;4883067;28;92110;-80
2022/09/26 14:38:46;;;;;;;2.92;0.32;;;17.80;61.20;;;;;;4884863;28;91808;-80
2022/09/26 14:41:20;;;;;;;1.77;0.20;;;17.90;63.00;;;;;;4882311;28;92737;-80
2022/09/26 14:43:48;;;;;;;3.03;0.20;;;17.90;60.60;;;;;;4880600;28;91604;-81
2022/09/26 14:46:22;;;;;;;1.85;0.25;;;17.90;58.70;;;;;;4882402;28;92580;-80
2022/09/26 14:48:56;;;;;;;0.75;0.22;;;17.70;57.80;;;;;;4872542;28;91791;-79
2022/09/26 14:51:30;;;;;;;1.27;0.40;;;17.80;60.70;;;;;;4892922;28;91250;-79
2022/09/26 14:54:04;;;;;;;1.92;0.32;;;17.80;59.30;;;;;;4895663;28;92688;-82
2022/09/26 14:56:40;;;;;;;0.90;0.30;;;17.80;58.80;;;;;;4893015;28;92021;-81
2022/09/26 14:59:15;;;;;;;0.98;0.30;;;17.70;58.90;;;;;;4896644;28;92661;-80
2022/09/26 15:01:43;;;;;;;1.67;0.40;;;16.90;70.10;;;;;;4882996;28;91369;-79
2022/09/26 15:04:12;;;;;;;2.40;0.40;;;16.40;73.80;;;;;;4878186;28;91567;-80
2022/09/26 15:06:49;;;;;;;1.42;0.52;;;15.90;75.20;;;;;;4880287;28;91353;-85
2022/09/26 15:09:37;;;;;;;2.53;0.63;;;15.90;77.00;;;;;;4890124;28;91151;-80
2022/09/26 15:12:26;;;;;;;1.23;0.40;;;15.60;79.20;;;;;;4881724;28;91368;-80
2022/09/26 15:15:25;;;;;;;3.42;0.65;;;15.40;81.30;;;;;;4882939;28;91742;-79
2022/09/26 15:17:56;;;;;;;2.63;0.55;;;15.40;82.50;;;;;;4864836;29;91177;-79
2022/09/26 15:20:24;;;;;;;1.80;0.88;;;15.50;81.90;;;;;;4870440;28;91956;-80
2022/09/26 15:22:51;;;;;;;2.83;0.70;;;15.50;80.30;;;;;;4878322;28;91941;-81
2022/09/26 15:25:30;;;;;;;1.60;0.63;;;15.40;79.20;;;;;;4880359;28;93327;-79
2022/09/26 15:27:58;;;;;;;1.27;0.30;;;15.30;80.80;;;;;;4880468;28;92369;-85
2022/09/26 15:30:39;;;;;;;2.42;0.70;;;15.30;80.20;;;;;;4879054;28;91443;-80
2022/09/26 15:33:06;;;;;;;4.00;0.70;;;15.40;79.70;;;;;;4886496;28;91920;-80
2022/09/26 15:35:32;;;;;;;3.22;0.63;;;15.40;80.00;;;;;;4878154;28;91709;-80
2022/09/26 15:38:00;;;;;;;5.40;1.25;;;15.30;79.50;;;;;;4882043;28;92020;-80
2022/09/26 15:40:28;;;;;;;3.67;0.70;;;15.30;80.00;;;;;;4875620;28;92491;-80
2022/09/26 15:43:09;;;;;;;1.55;0.68;;;15.30;78.50;;;;;;4878947;28;91026;-81
2022/09/26 15:45:57;;;;;;;1.45;0.47;;;15.20;79.10;;;;;;4884020;28;92335;-82
2022/09/26 15:48:31;;;;;;;1.60;0.75;;;15.00;79.70;;;;;;4878736;28;91948;-80
2022/09/26 15:51:19;;;;;;;2.53;0.80;;;15.00;78.40;;;;;;4886951;28;92511;-80
2022/09/26 15:54:05;;;;;;;2.08;0.73;;;15.00;79.80;;;;;;4880557;28;92931;-81
2022/09/26 15:56:45;;;;;;;2.00;1.00;;;15.20;79.10;;;;;;4880690;28;92322;-80
2022/09/26 15:59:13;;;;;;;3.20;1.02;;;15.20;79.00;;;;;;4880861;28;92204;-82
2022/09/26 16:01:42;;;;;;;3.03;1.30;;;15.20;78.70;;;;;;4883081;28;92063;-80
2022/09/26 16:04:25;;;;;;;2.70;0.73;;;15.10;78.30;;;;;;4889619;28;92179;-80
2022/09/26 16:07:02;;;;;;;8.10;0.85;;;15.20;79.20;;;;;;4869810;28;92033;-81
2022/09/26 16:09:31;;;;;;;;;;;15.00;79.60;;;;;;4873664;28;91239;-82
2022/09/26 16:12:15;;;;;;;2.13;0.93;;;15.00;79.70;;;;;;4881650;28;91770;-83
2022/09/26 16:15:04;;;;;;;1.88;0.80;;;15.00;80.50;;;;;;4880117;28;91232;-80
2022/09/26 16:17:45;;;;;;;2.80;0.80;;;15.00;79.60;;;;;;4880699;28;93353;-80
2022/09/26 16:20:16;;;;;;;3.22;1.30;;;15.10;79.90;;;;;;4876552;28;93242;-80
2022/09/26 16:22:48;;;;;;;2.50;0.38;;;15.10;80.00;;;;;;4871031;28;92138;-80
2022/09/26 16:25:19;;;;;;;2.83;0.93;;;15.10;79.00;;;;;;4866560;28;92100;-80